Time;durP1;ratioP1;P1;durP2;ratioP2;P2;SDS_P1;SDS_P2;PMS_P1;PMS_P2;Temp;Humidity;BMP_temperature;BMP_pressure;BME280_temperature;BME280_humidity;BME280_pressure;Samples;Min_cycle;Max_cycle;Signal;HPM_P1;HPM_P2
2022/07/27 00:00:20;;;;;;;4.37;1.57;;;;;;;14.36;77.39;102022.72;5073766;28;20319;-35
2022/07/27 00:02:45;;;;;;;5.43;1.73;;;;;;;14.28;77.41;102017.56;5073428;28;20024;-35
2022/07/27 00:05:10;;;;;;;;;;;;;;;14.52;75.40;102022.13;5073619;28;20059;-35
2022/07/27 00:07:36;;;;;;;2.83;0.97;;;;;;;14.32;77.38;102019.63;5073328;28;19966;-35
2022/07/27 00:10:01;;;;;;;2.97;1.17;;;;;;;14.35;76.64;102016.44;5073465;28;20259;-35
2022/07/27 00:12:27;;;;;;;3.03;1.10;;;;;;;14.29;77.41;102025.50;5073514;28;20032;-35
2022/07/27 00:14:52;;;;;;;3.50;1.13;;;;;;;14.17;77.61;102017.28;5073478;28;20501;-36
2022/07/27 00:17:22;;;;;;;;;;;;;;;14.40;75.67;102023.94;5073726;28;20032;-36
2022/07/27 00:19:48;;;;;;;1.70;0.77;;;;;;;14.15;77.91;102013.97;5073797;28;19918;-36
2022/07/27 00:22:14;;;;;;;;;;;;;;;14.36;75.96;102028.16;5073616;28;20035;-36
2022/07/27 00:24:39;;;;;;;3.55;1.27;;;;;;;14.07;77.84;102022.41;5074008;28;19912;-36
2022/07/27 00:27:05;;;;;;;5.35;1.40;;;;;;;14.08;78.31;102032.22;5073435;28;20032;-36
2022/07/27 00:29:30;;;;;;;5.77;1.83;;;;;;;14.01;79.03;102030.66;5073472;28;20025;-36
2022/07/27 00:31:55;;;;;;;2.67;1.10;;;;;;;13.98;78.49;102023.75;5072946;28;20278;-36
2022/07/27 00:34:20;;;;;;;;;;;;;;;14.17;76.70;102028.16;5074072;28;20033;-36
2022/07/27 00:36:46;;;;;;;3.00;0.97;;;;;;;13.94;79.41;102019.81;5073360;28;19974;-36
2022/07/27 00:39:11;;;;;;;4.10;1.17;;;;;;;13.92;79.51;102024.66;5072851;28;20492;-36
2022/07/27 00:41:36;;;;;;;4.63;1.40;;;;;;;13.85;79.51;102030.16;5073086;28;20346;-36
2022/07/27 00:44:05;;;;;;;2.27;0.90;;;;;;;13.82;79.81;102030.63;5072738;28;20362;-36
2022/07/27 00:46:31;;;;;;;2.92;1.00;;;;;;;13.74;80.26;102030.88;5073004;28;20111;-36
2022/07/27 00:48:56;;;;;;;;;;;;;;;13.94;78.01;102030.69;5073365;28;20067;-36
2022/07/27 00:51:23;;;;;;;3.60;1.00;;;;;;;13.72;80.34;102024.03;5072945;28;19915;-36
2022/07/27 00:53:51;;;;;;;2.97;1.15;;;;;;;13.66;80.49;102020.28;5073088;28;20444;-36
2022/07/27 00:56:16;;;;;;;4.13;1.13;;;;;;;13.65;80.32;102022.19;5073567;28;20498;-36
2022/07/27 00:58:43;;;;;;;;;;;;;;;13.86;78.48;102022.84;5073532;28;20029;-36
2022/07/27 01:01:08;;;;;;;2.67;1.08;;;;;;;13.67;80.25;102029.31;5073097;28;19977;-36
2022/07/27 01:03:34;;;;;;;;;;;;;;;13.80;78.25;102027.28;5073162;28;20032;-36
2022/07/27 01:05:59;;;;;;;2.63;1.00;;;;;;;13.62;80.84;102028.09;5072568;28;19934;-36
2022/07/27 01:08:24;;;;;;;;;;;;;;;13.77;78.42;102024.19;5072994;28;20055;-36
2022/07/27 01:10:53;;;;;;;3.13;1.17;;;;;;;13.51;80.99;102023.34;5073150;28;19908;-36
2022/07/27 01:13:19;;;;;;;4.35;1.25;;;;;;;13.43;81.31;102023.63;5072779;28;20075;-36
2022/07/27 01:15:44;;;;;;;;;;;;;;;13.68;78.96;102026.34;5073440;28;20024;-36
2022/07/27 01:18:29;;;;;;;2.73;1.20;;;;;;;13.49;80.39;102009.16;5072672;28;20352;-36
2022/07/27 01:20:55;;;;;;;2.33;1.10;;;;;;;13.46;81.55;102022.34;5072886;28;20267;-36
2022/07/27 01:23:23;;;;;;;2.78;1.10;;;;;;;13.34;81.51;102012.22;5072472;28;20028;-36
2022/07/27 01:25:48;;;;;;;2.78;1.10;;;;;;;13.40;81.86;102022.19;5072291;28;20539;-36
2022/07/27 01:28:13;;;;;;;4.63;1.30;;;;;;;13.34;82.03;102027.69;5071192;28;20083;-36
2022/07/27 01:30:39;;;;;;;4.43;1.20;;;;;;;13.33;82.05;102026.03;5072366;28;20036;-36
2022/07/27 01:33:07;;;;;;;3.58;1.17;;;;;;;13.29;82.34;102038.38;5072466;28;20329;-35
2022/07/27 01:35:33;;;;;;;3.22;1.23;;;;;;;13.23;82.62;102036.53;5072794;28;20033;-36
2022/07/27 01:37:58;;;;;;;;;;;;;;;13.47;80.49;102024.00;5072907;28;20020;-36
2022/07/27 01:40:25;;;;;;;4.83;1.63;;;;;;;13.22;82.70;102038.41;5072733;28;20369;-35
2022/07/27 01:42:51;;;;;;;3.15;1.33;;;;;;;13.15;82.86;102027.56;5072440;28;20305;-36
2022/07/27 01:45:16;;;;;;;3.47;1.50;;;;;;;13.09;82.79;102014.88;5072476;28;20460;-36
2022/07/27 01:47:41;;;;;;;3.78;1.60;;;;;;;13.11;82.66;102020.06;5072395;28;20039;-36
2022/07/27 01:50:07;;;;;;;3.78;1.55;;;;;;;13.08;82.82;102024.06;5072395;28;20028;-36
2022/07/27 01:52:33;;;;;;;3.83;1.40;;;;;;;13.05;83.30;102015.53;5072031;28;20481;-35
2022/07/27 01:54:58;;;;;;;3.75;1.40;;;;;;;13.00;83.12;102013.47;5072343;28;20067;-36
2022/07/27 01:57:23;;;;;;;3.53;1.13;;;;;;;13.03;83.62;102023.91;5072937;28;20111;-36
2022/07/27 01:59:49;;;;;;;3.17;1.40;;;;;;;12.94;84.09;102008.91;5072781;28;20298;-36
2022/07/27 02:02:15;;;;;;;3.13;1.53;;;;;;;12.87;83.61;101999.97;5072234;28;20290;-36
2022/07/27 02:04:43;;;;;;;4.45;1.88;;;;;;;12.94;83.86;102017.06;5072635;28;20020;-36
2022/07/27 02:07:08;;;;;;;3.60;1.50;;;;;;;12.91;83.79;102014.78;5072137;28;20032;-36
2022/07/27 02:09:34;;;;;;;2.65;1.27;;;;;;;12.90;83.70;102023.97;5072280;28;20036;-36
2022/07/27 02:14:43;;;;;;;3.38;1.50;;;;;;;12.80;84.41;102019.00;5071926;28;20796;-36
2022/07/27 02:17:08;;;;;;;3.75;1.40;;;;;;;12.81;84.23;102022.56;5072809;28;20025;-36
2022/07/27 02:19:34;;;;;;;3.42;1.52;;;;;;;12.82;84.14;102016.91;5073854;28;20025;-36
2022/07/27 02:21:59;;;;;;;4.93;1.77;;;;;;;12.70;84.02;102009.69;5075941;28;20025;-35
2022/07/27 02:24:24;;;;;;;3.43;1.43;;;;;;;12.70;84.21;102009.69;5075551;28;20026;-36
2022/07/27 02:26:50;;;;;;;4.43;1.63;;;;;;;12.73;84.49;102015.47;5075548;28;20262;-36
2022/07/27 02:29:15;;;;;;;4.07;1.87;;;;;;;12.76;84.41;102020.50;5076253;28;20035;-36
2022/07/27 02:31:40;;;;;;;3.10;1.60;;;;;;;12.69;84.73;102010.69;5075316;28;20723;-36
2022/07/27 02:34:06;;;;;;;2.30;1.47;;;;;;;12.71;84.84;102014.06;5075182;28;20474;-36
2022/07/27 02:36:31;;;;;;;3.70;1.73;;;;;;;12.66;84.90;102011.97;5075582;28;20411;-35
2022/07/27 02:38:57;;;;;;;3.90;1.90;;;;;;;12.63;84.70;102006.97;5075357;28;20107;-35
2022/07/27 02:41:22;;;;;;;5.07;1.65;;;;;;;12.52;84.79;101989.50;5075580;28;20059;-35
2022/07/27 02:43:48;;;;;;;4.40;1.70;;;;;;;12.62;85.22;102006.16;5074970;28;20024;-36
2022/07/27 02:46:13;;;;;;;4.03;1.87;;;;;;;12.58;85.28;102009.50;5076039;28;20036;-36
2022/07/27 02:48:38;;;;;;;2.30;1.40;;;;;;;12.56;85.46;102004.31;5075833;28;20043;-35
2022/07/27 02:51:04;;;;;;;3.50;1.50;;;;;;;12.55;85.16;102001.81;5075091;28;20031;-35
2022/07/27 02:53:29;;;;;;;3.65;1.42;;;;;;;12.57;85.47;102003.25;5075256;28;20115;-35
2022/07/27 02:55:55;;;;;;;3.05;1.60;;;;;;;12.54;85.41;101992.00;5075405;28;20387;-35
2022/07/27 02:58:21;;;;;;;3.80;1.80;;;;;;;12.52;85.55;101999.53;5074978;28;20035;-36
2022/07/27 03:00:46;;;;;;;3.40;1.50;;;;;;;12.43;85.67;102001.63;5074981;28;20380;-36
2022/07/27 03:03:12;;;;;;;4.60;1.87;;;;;;;12.46;85.93;102001.22;5074968;28;20048;-36
2022/07/27 03:05:38;;;;;;;3.38;2.03;;;;;;;12.41;86.02;102003.75;5075569;28;20263;-35
2022/07/27 03:08:04;;;;;;;3.45;1.52;;;;;;;12.36;86.27;101992.72;5074501;28;20499;-35
2022/07/27 03:10:29;;;;;;;5.18;1.67;;;;;;;12.40;86.43;102012.94;5075558;28;20376;-36
2022/07/27 03:12:54;;;;;;;3.35;1.48;;;;;;;12.38;86.41;102001.47;5074729;28;20065;-36
2022/07/27 03:15:20;;;;;;;4.17;1.63;;;;;;;12.39;86.39;102005.81;5074834;28;20101;-36
2022/07/27 03:17:45;;;;;;;2.60;1.57;;;;;;;12.38;86.17;102005.00;5074437;28;20035;-35
2022/07/27 03:20:11;;;;;;;4.25;1.60;;;;;;;12.38;85.82;102009.59;5074916;28;20265;-35
2022/07/27 03:22:36;;;;;;;2.72;1.70;;;;;;;12.37;86.02;102016.06;5074495;28;20062;-36
2022/07/27 03:25:02;;;;;;;3.00;1.65;;;;;;;12.29;86.65;102013.59;5074711;28;20035;-36
2022/07/27 03:27:28;;;;;;;2.65;1.65;;;;;;;12.25;86.30;101998.78;5074660;28;20024;-35
2022/07/27 03:29:54;;;;;;;3.28;1.75;;;;;;;12.32;86.32;102010.47;5074338;28;20040;-36
2022/07/27 03:32:19;;;;;;;;;;;;;;;12.50;84.58;102018.75;5074415;28;20027;-36
2022/07/27 03:34:44;;;;;;;2.70;1.43;;;;;;;12.30;85.59;102012.56;5074495;28;19908;-35
2022/07/27 03:37:10;;;;;;;2.25;1.40;;;;;;;12.24;85.83;102018.81;5073820;28;20028;-36
2022/07/27 03:39:35;;;;;;;4.23;1.93;;;;;;;12.15;86.38;102004.69;5074620;28;20048;-36
2022/07/27 03:42:00;;;;;;;5.70;2.22;;;;;;;12.11;86.80;102006.97;5073807;28;20082;-35
2022/07/27 03:44:26;;;;;;;3.67;1.75;;;;;;;12.07;86.70;102015.75;5074021;28;20032;-35
2022/07/27 03:46:51;;;;;;;3.83;1.80;;;;;;;12.08;87.25;102020.94;5074084;28;20078;-35
2022/07/27 03:49:17;;;;;;;2.80;1.70;;;;;;;11.98;86.79;102012.44;5073981;28;20415;-35
2022/07/27 03:51:43;;;;;;;5.53;1.70;;;;;;;12.01;87.10;102020.16;5073579;28;20259;-35
2022/07/27 03:54:09;;;;;;;2.55;1.30;;;;;;;12.00;86.94;102018.47;5073865;28;20111;-35
2022/07/27 03:56:34;;;;;;;;;;;;;;;12.19;85.15;102014.03;5074731;28;20040;-36
2022/07/27 03:59:00;;;;;;;2.75;1.35;;;;;;;11.92;86.73;101997.03;5072062;28;20006;-35
2022/07/27 04:01:25;;;;;;;3.10;1.57;;;;;;;12.03;86.97;102017.22;5073959;28;20119;-35
2022/07/27 04:03:50;;;;;;;2.92;1.30;;;;;;;12.03;87.37;102023.47;5073583;28;20089;-35
2022/07/27 04:06:16;;;;;;;2.77;1.60;;;;;;;12.06;87.32;102017.63;5073697;28;20531;-35
2022/07/27 04:08:41;;;;;;;2.87;1.60;;;;;;;12.06;87.07;102023.06;5073291;28;20390;-35
2022/07/27 04:11:06;;;;;;;3.10;1.77;;;;;;;12.06;87.52;102022.22;5073498;28;20029;-35
2022/07/27 04:13:32;;;;;;;3.60;2.00;;;;;;;12.13;88.00;102022.19;5073199;28;20765;-35
2022/07/27 04:15:57;;;;;;;5.10;1.90;;;;;;;12.10;88.36;102023.44;5072162;28;20021;-36
2022/07/27 04:18:24;;;;;;;3.53;1.83;;;;;;;12.01;88.74;102008.47;5073382;28;20063;-35
2022/07/27 04:20:49;;;;;;;3.67;1.92;;;;;;;12.10;88.83;102021.59;5073274;28;20033;-35
2022/07/27 04:23:14;;;;;;;5.43;2.22;;;;;;;12.18;88.56;102030.53;5073359;28;20028;-35
2022/07/27 04:25:40;;;;;;;4.33;2.10;;;;;;;12.24;88.84;102021.53;5073067;28;20032;-35
2022/07/27 04:28:05;;;;;;;2.83;1.90;;;;;;;12.28;88.78;102012.75;5072944;28;20119;-35
2022/07/27 04:30:31;;;;;;;4.40;1.90;;;;;;;12.41;88.13;102016.47;5073509;28;20107;-35
2022/07/27 04:32:57;;;;;;;;;;;;;;;12.62;86.81;102021.59;5073292;28;20409;-35
2022/07/27 04:35:22;;;;;;;6.30;1.77;;;;;;;12.53;87.29;102029.16;5073139;28;19952;-35
2022/07/27 04:37:48;;;;;;;4.70;2.20;;;;;;;12.61;87.33;102023.47;5073852;28;20060;-35
2022/07/27 04:40:13;;;;;;;6.03;2.03;;;;;;;12.63;87.90;102034.13;5073560;28;20032;-35
2022/07/27 04:42:38;;;;;;;4.83;1.80;;;;;;;12.77;87.40;102030.28;5072770;28;20103;-35
2022/07/27 04:45:04;;;;;;;4.10;2.15;;;;;;;12.80;87.74;102032.59;5072749;28;20286;-35
2022/07/27 04:47:30;;;;;;;4.72;2.40;;;;;;;12.85;87.10;102040.91;5073451;28;20028;-35
2022/07/27 04:49:55;;;;;;;5.07;2.30;;;;;;;12.92;86.99;102040.03;5073746;28;20083;-35
2022/07/27 04:52:21;;;;;;;4.18;2.00;;;;;;;12.93;86.37;102042.50;5072935;28;20349;-35
2022/07/27 04:54:50;;;;;;;3.63;1.95;;;;;;;13.01;86.83;102031.41;5072936;28;20036;-36
2022/07/27 04:57:15;;;;;;;3.20;1.88;;;;;;;13.05;87.25;102035.34;5073149;28;20060;-35
2022/07/27 04:59:40;;;;;;;5.00;1.97;;;;;;;12.98;86.62;102039.16;5073577;28;20068;-35
2022/07/27 05:02:06;;;;;;;3.03;2.00;;;;;;;13.13;87.60;102040.53;5072862;28;20821;-35
2022/07/27 05:04:31;;;;;;;4.13;2.20;;;;;;;13.15;87.38;102038.44;5073150;28;20452;-35
2022/07/27 05:06:56;;;;;;;4.10;1.77;;;;;;;13.20;87.13;102045.09;5072418;28;20032;-35
2022/07/27 05:09:22;;;;;;;5.10;1.93;;;;;;;13.20;86.43;102045.91;5072989;28;20295;-36
2022/07/27 05:11:47;;;;;;;4.27;2.00;;;;;;;13.35;87.27;102042.91;5072339;28;20758;-35
2022/07/27 05:14:12;;;;;;;3.67;2.30;;;;;;;13.44;86.54;102041.59;5073483;28;20039;-35
2022/07/27 05:16:39;;;;;;;6.17;2.47;;;;;;;13.52;86.03;102041.34;5073394;28;20123;-35
2022/07/27 05:19:04;;;;;;;3.95;2.35;;;;;;;13.44;86.24;102046.22;5072327;28;20479;-35
2022/07/27 05:21:30;;;;;;;4.75;2.30;;;;;;;13.53;86.33;102053.88;5072665;28;20111;-35
2022/07/27 05:23:55;;;;;;;3.57;2.30;;;;;;;13.63;85.87;102054.19;5072416;28;20029;-35
2022/07/27 05:26:21;;;;;;;5.00;2.30;;;;;;;13.61;85.24;102055.47;5073340;28;20254;-35
2022/07/27 05:28:47;;;;;;;4.50;2.40;;;;;;;13.75;85.93;102048.03;5072484;28;20282;-35
2022/07/27 05:31:12;;;;;;;;;;;;;;;13.90;85.06;102057.50;5073101;28;20108;-35
2022/07/27 05:33:37;;;;;;;4.47;2.00;;;;;;;13.88;85.26;102050.63;5072277;28;19912;-35
2022/07/27 05:36:03;;;;;;;;;;;;;;;14.11;84.61;102063.59;5073112;28;20035;-35
2022/07/27 05:38:28;;;;;;;5.50;2.47;;;;;;;14.19;84.26;102068.72;5072124;28;19913;-35
2022/07/27 05:40:53;;;;;;;4.67;2.40;;;;;;;14.26;84.05;102065.97;5072931;28;20572;-35
2022/07/27 05:43:19;;;;;;;7.22;2.38;;;;;;;14.36;83.48;102058.09;5072140;28;20033;-35
2022/07/27 05:45:44;;;;;;;5.20;2.00;;;;;;;14.49;83.50;102060.66;5071376;28;20039;-35
2022/07/27 05:48:09;;;;;;;5.15;2.25;;;;;;;14.57;82.09;102063.09;5071980;28;20469;-35
2022/07/27 05:50:35;;;;;;;5.33;2.50;;;;;;;14.54;82.58;102047.25;5072158;28;20016;-36
2022/07/27 05:53:00;;;;;;;5.15;2.45;;;;;;;14.70;82.79;102047.66;5072378;28;20271;-35
2022/07/27 05:55:26;;;;;;;4.82;2.42;;;;;;;14.78;81.92;102061.78;5074902;28;20074;-35
2022/07/27 05:57:51;;;;;;;;;;;;;;;14.97;82.23;102068.03;5076490;28;20032;-35
2022/07/27 06:00:16;;;;;;;4.10;2.40;;;;;;;14.93;81.76;102061.38;5076029;28;19977;-36
2022/07/27 06:02:42;;;;;;;4.85;2.08;;;;;;;15.04;80.95;102070.69;5075680;28;20312;-35
2022/07/27 06:05:08;;;;;;;;;;;;;;;15.14;80.73;102070.94;5076872;28;20506;-36
2022/07/27 06:10:17;;;;;;;2.63;1.48;;;;;;;15.21;79.90;102074.41;5076116;28;20059;-35
2022/07/27 06:12:43;;;;;;;;;;;;;;;15.35;80.32;102075.88;5076198;28;20025;-35
2022/07/27 06:15:10;;;;;;;5.13;1.30;;;;;;;15.34;78.67;102079.66;5076090;28;20306;-36
2022/07/27 06:17:36;;;;;;;4.32;1.40;;;;;;;15.40;78.35;102072.44;5076107;28;20040;-36
2022/07/27 06:20:02;;;;;;;;;;;;;;;15.56;79.29;102076.38;5075507;28;20085;-36
2022/07/27 06:22:27;;;;;;;4.18;1.50;;;;;;;15.47;78.10;102059.56;5076118;28;19999;-36
2022/07/27 06:24:53;;;;;;;;;;;;;;;15.64;77.99;102062.44;5076163;28;20063;-36
2022/07/27 06:27:18;;;;;;;6.90;1.63;;;;;;;15.57;77.33;102075.34;5075226;28;19908;-36
2022/07/27 06:29:44;;;;;;;4.88;1.70;;;;;;;15.60;76.75;102077.56;5075330;28;20298;-36
2022/07/27 06:32:09;;;;;;;4.82;1.23;;;;;;;15.65;77.33;102083.19;5075442;28;20119;-36
2022/07/27 06:34:34;;;;;;;;;;;;;;;15.79;77.81;102076.44;5076424;28;20067;-36
2022/07/27 06:36:59;;;;;;;3.50;1.00;;;;;;;15.75;76.62;102068.97;5075345;28;19951;-36
2022/07/27 06:39:25;;;;;;;;;;;;;;;15.88;77.03;102068.75;5076194;28;20078;-36
2022/07/27 06:41:51;;;;;;;3.45;1.15;;;;;;;15.81;76.06;102073.47;5075281;28;20331;-36
2022/07/27 06:44:16;;;;;;;;;;;;;;;15.98;77.33;102073.63;5076122;28;20060;-36
2022/07/27 06:46:41;;;;;;;3.70;1.37;;;;;;;15.92;75.83;102076.22;5075447;28;19908;-36
2022/07/27 06:49:07;;;;;;;;;;;;;;;16.02;75.79;102081.09;5075569;28;20035;-36
2022/07/27 06:51:32;;;;;;;4.68;1.20;;;;;;;15.91;74.37;102079.19;5075128;28;19991;-36
2022/07/27 06:53:57;;;;;;;;;;;;;;;16.02;76.38;102083.81;5075523;28;20032;-36
2022/07/27 06:56:23;;;;;;;6.13;1.07;;;;;;;16.05;76.23;102080.59;5075754;28;19920;-36
2022/07/27 06:58:49;;;;;;;;;;;;;;;16.18;76.31;102085.81;5075727;28;20028;-36
2022/07/27 07:01:14;;;;;;;3.50;1.20;;;;;;;16.10;75.45;102069.81;5075318;28;20290;-36
2022/07/27 07:03:39;;;;;;;4.32;1.17;;;;;;;16.21;75.23;102081.81;5075162;28;20441;-36
2022/07/27 07:06:05;;;;;;;;;;;;;;;16.31;75.65;102086.66;5074944;28;20032;-35
2022/07/27 07:08:30;;;;;;;5.72;1.30;;;;;;;16.14;75.13;102068.25;5074763;28;19908;-35
2022/07/27 07:10:55;;;;;;;;;;;;;;;16.36;75.26;102079.41;5076029;28;20025;-36
2022/07/27 07:13:20;;;;;;;4.40;1.77;;;;;;;16.27;74.45;102085.47;5074959;28;19954;-36
2022/07/27 07:15:46;;;;;;;;;;;;;;;16.40;75.04;102090.69;5075197;28;20028;-38
2022/07/27 07:18:13;;;;;;;3.77;1.27;;;;;;;16.40;74.13;102098.88;5074810;28;20283;-36
2022/07/27 07:20:39;;;;;;;3.85;1.10;;;;;;;16.58;74.95;102095.97;5074590;28;20251;-36
2022/07/27 07:23:05;;;;;;;3.88;1.40;;;;;;;16.69;74.72;102092.41;5074281;28;20077;-36
2022/07/27 07:25:31;;;;;;;;;;;;;;;16.84;74.86;102094.66;5074702;28;20470;-36
2022/07/27 07:27:57;;;;;;;5.93;1.30;;;;;;;16.95;73.19;102090.22;5074627;28;19982;-36
2022/07/27 07:30:22;;;;;;;;;;;;;;;17.17;73.96;102093.91;5075134;28;20040;-36
2022/07/27 07:32:48;;;;;;;4.65;1.17;;;;;;;17.22;72.67;102101.38;5074865;28;19924;-36
2022/07/27 07:35:13;;;;;;;;;;;;;;;17.32;71.08;102089.78;5075025;28;20074;-36
2022/07/27 07:37:39;;;;;;;5.55;1.15;;;;;;;17.18;69.47;102090.13;5074199;28;19974;-36
2022/07/27 07:40:05;;;;;;;;;;;;;;;17.38;70.84;102097.88;5074943;28;20411;-36
2022/07/27 07:42:31;;;;;;;3.53;1.00;;;;;;;17.28;68.85;102094.13;5074366;28;19912;-36
2022/07/27 07:44:56;;;;;;;;;;;;;;;17.35;70.43;102100.25;5074499;28;20464;-36
2022/07/27 07:47:22;;;;;;;3.53;0.85;;;;;;;17.33;68.32;102108.72;5074354;28;19908;-36
2022/07/27 07:49:48;;;;;;;6.57;1.10;;;;;;;17.28;68.15;102105.06;5073715;28;20542;-36
2022/07/27 07:52:13;;;;;;;;;;;;;;;17.36;69.33;102116.41;5074395;28;20021;-36
2022/07/27 07:54:39;;;;;;;5.20;1.00;;;;;;;17.14;69.86;102113.53;5074498;28;19908;-36
2022/07/27 07:57:04;;;;;;;;;;;;;;;17.15;69.65;102101.53;5073982;28;20391;-36
2022/07/27 07:59:29;;;;;;;4.57;1.17;;;;;;;16.96;68.73;102109.09;5073920;28;19919;-36
2022/07/27 08:01:54;;;;;;;;;;;;;;;17.14;69.54;102108.06;5074194;28;20079;-36
2022/07/27 08:04:20;;;;;;;4.97;1.10;;;;;;;16.97;68.18;102104.44;5074262;28;19993;-36
2022/07/27 08:06:45;;;;;;;;;;;;;;;17.07;69.82;102114.75;5074444;28;20174;-36
2022/07/27 08:09:11;;;;;;;3.93;1.10;;;;;;;16.84;68.40;102107.47;5073714;28;19919;-36
2022/07/27 08:11:37;;;;;;;4.47;1.20;;;;;;;16.65;67.36;102098.59;5073703;28;20056;-37
2022/07/27 08:14:03;;;;;;;;;;;;;;;16.83;68.79;102114.00;5074030;28;20098;-36
2022/07/27 08:16:28;;;;;;;3.05;1.00;;;;;;;16.66;68.21;102114.72;5072867;28;19916;-36
2022/07/27 08:18:53;;;;;;;;;;;;;;;16.78;68.48;102116.63;5073465;28;20033;-36
2022/07/27 08:21:19;;;;;;;3.97;1.00;;;;;;;16.59;67.18;102105.00;5073159;28;19908;-36
2022/07/27 08:23:44;;;;;;;;;;;;;;;16.74;69.04;102121.75;5073943;28;20029;-36
2022/07/27 08:26:09;;;;;;;3.47;0.80;;;;;;;16.52;66.28;102124.25;5073778;28;20253;-36
2022/07/27 08:28:34;;;;;;;;;;;;;;;16.69;68.46;102118.91;5073907;28;20024;-36
2022/07/27 08:31:00;;;;;;;3.03;0.82;;;;;;;16.79;67.03;102113.66;5073222;28;20358;-36
2022/07/27 08:33:25;;;;;;;;;;;;;;;17.12;68.22;102110.22;5073585;28;20039;-36
2022/07/27 08:35:51;;;;;;;4.25;0.75;;;;;;;17.33;64.55;102108.72;5073389;28;19959;-36
2022/07/27 08:38:17;;;;;;;5.57;0.95;;;;;;;17.29;63.14;102084.84;5073189;28;20028;-36
2022/07/27 08:40:42;;;;;;;;;;;;;;;17.63;62.79;102118.53;5073320;28;20365;-36
2022/07/27 08:43:08;;;;;;;3.45;0.80;;;;;;;17.70;61.23;102102.78;5073110;28;19909;-36
2022/07/27 08:45:33;;;;;;;4.40;1.10;;;;;;;17.85;59.32;102096.75;5073448;28;20026;-36
2022/07/27 08:47:59;;;;;;;;;;;;;;;18.06;62.04;102096.00;5073271;28;20031;-36
2022/07/27 08:50:29;;;;;;;3.87;0.90;;;;;;;18.00;57.54;102097.81;5073271;28;19959;-36
2022/07/27 08:53:09;;;;;;;5.05;0.90;;;;;;;18.17;55.50;102091.50;5073025;28;20293;-36
2022/07/27 08:55:46;;;;;;;3.35;0.75;;;;;;;18.20;57.31;102080.88;5073363;28;20052;-36
2022/07/27 08:58:13;;;;;;;5.10;0.70;;;;;;;18.33;55.08;102079.69;5073768;28;20099;-36
2022/07/27 09:00:42;;;;;;;2.17;0.70;;;;;;;18.51;55.85;102095.81;5073540;28;20044;-36
2022/07/27 09:03:12;;;;;;;2.35;0.70;;;;;;;18.60;53.74;102096.22;5072852;28;20028;-36
2022/07/27 09:05:45;;;;;;;3.13;1.00;;;;;;;18.92;54.94;102103.75;5073101;28;20032;-36
2022/07/27 09:08:34;;;;;;;3.67;1.05;;;;;;;19.08;55.05;102099.25;5072508;28;20476;-36
2022/07/27 09:10:59;;;;;;;2.75;0.60;;;;;;;19.20;52.34;102105.44;5073020;28;20404;-36
2022/07/27 09:13:30;;;;;;;3.20;0.80;;;;;;;19.38;52.59;102101.50;5072881;28;20028;-36
2022/07/27 09:16:07;;;;;;;4.03;0.73;;;;;;;19.75;53.77;102096.09;5073591;28;20456;-36
2022/07/27 09:18:37;;;;;;;2.78;0.80;;;;;;;19.94;51.46;102077.28;5073272;28;20082;-36
2022/07/27 09:21:11;;;;;;;2.63;0.80;;;;;;;19.92;52.80;102091.28;5072841;28;20033;-36
2022/07/27 09:23:38;;;;;;;3.40;1.00;;;;;;;19.77;50.89;102086.50;5072791;28;20052;-36
2022/07/27 09:26:10;;;;;;;4.15;0.90;;;;;;;19.71;52.82;102090.28;5073519;28;20036;-36
2022/07/27 09:28:36;;;;;;;3.97;0.80;;;;;;;19.93;50.73;102092.13;5074454;28;20055;-36
2022/07/27 09:31:06;;;;;;;;;;;;;;;20.26;51.18;102101.94;5077649;28;20063;-36
2022/07/27 09:33:41;;;;;;;3.00;0.80;;;;;;;20.07;49.09;102104.28;5076700;28;20356;-36
2022/07/27 09:36:07;;;;;;;3.03;0.57;;;;;;;20.43;50.12;102102.56;5076911;28;20033;-36
2022/07/27 09:38:32;;;;;;;5.47;1.33;;;;;;;20.33;48.00;102097.84;5076196;28;20035;-36
2022/07/27 09:40:59;;;;;;;2.85;0.73;;;;;;;20.25;48.28;102100.28;5077180;28;20032;-36
2022/07/27 09:43:25;;;;;;;7.28;0.93;;;;;;;20.03;48.14;102094.94;5076410;28;20020;-36
2022/07/27 09:45:52;;;;;;;2.47;0.80;;;;;;;19.92;49.59;102090.47;5076895;28;20082;-36
2022/07/27 09:48:20;;;;;;;1.90;0.75;;;;;;;19.69;50.34;102083.41;5076321;28;20028;-36
2022/07/27 09:51:11;;;;;;;2.17;0.82;;;;;;;19.70;51.65;102096.88;5076842;28;20175;-36
2022/07/27 09:53:37;;;;;;;3.17;1.00;;;;;;;19.44;51.36;102084.81;5074315;28;20043;-36
2022/07/27 09:56:06;;;;;;;4.03;0.90;;;;;;;19.43;50.26;102083.19;5076821;28;20049;-36
2022/07/27 09:58:58;;;;;;;1.95;0.90;;;;;;;19.87;50.76;102094.00;5075933;28;20524;-36
2022/07/27 10:01:34;;;;;;;2.65;0.90;;;;;;;20.12;48.99;102087.84;5076501;28;20024;-36
2022/07/27 10:04:02;;;;;;;3.00;0.88;;;;;;;20.14;48.40;102088.41;5076187;28;20029;-36
2022/07/27 10:06:28;;;;;;;2.75;0.90;;;;;;;20.39;48.04;102090.47;5076687;28;20500;-36
2022/07/27 10:08:56;;;;;;;3.63;1.23;;;;;;;20.66;48.17;102095.84;5075732;28;20195;-36
2022/07/27 10:11:22;;;;;;;2.85;0.80;;;;;;;20.76;48.37;102092.31;5076347;28;20031;-35
2022/07/27 10:13:49;;;;;;;4.43;0.98;;;;;;;20.97;49.13;102084.97;5075574;28;20102;-35
2022/07/27 10:16:20;;;;;;;3.13;0.98;;;;;;;21.37;48.34;102103.50;5076359;28;20091;-36
2022/07/27 10:18:54;;;;;;;2.65;0.80;;;;;;;21.26;46.46;102094.38;5076179;28;20020;-35
2022/07/27 10:21:20;;;;;;;2.92;1.00;;;;;;;21.15;47.79;102092.72;5075925;28;20074;-36
2022/07/27 10:23:58;;;;;;;3.70;0.98;;;;;;;20.81;47.56;102084.09;5075416;28;20028;-35
2022/07/27 10:26:23;;;;;;;3.20;1.08;;;;;;;20.77;49.04;102083.81;5076523;28;20380;-35
2022/07/27 10:28:56;;;;;;;2.13;1.00;;;;;;;20.64;49.23;102092.53;5076192;28;20036;-35
2022/07/27 10:31:33;;;;;;;3.97;0.80;;;;;;;20.76;49.93;102090.41;5075667;28;20270;-35
2022/07/27 10:34:00;;;;;;;2.45;0.90;;;;;;;20.92;49.84;102084.94;5075786;28;20083;-35
2022/07/27 10:36:28;;;;;;;4.60;1.15;;;;;;;21.25;48.20;102083.66;5076127;28;20123;-36
2022/07/27 10:38:56;;;;;;;4.22;0.88;;;;;;;21.62;47.02;102075.19;5075174;28;20025;-36
2022/07/27 10:41:24;;;;;;;2.78;0.75;;;;;;;21.45;47.32;102080.13;5074560;28;20024;-36
2022/07/27 10:44:09;;;;;;;1.88;0.80;;;;;;;21.11;48.54;102077.84;5075294;28;20035;-35
2022/07/27 10:46:37;;;;;;;2.60;0.75;;;;;;;20.67;46.95;102086.50;5075327;28;20090;-36
2022/07/27 10:49:22;;;;;;;2.67;0.80;;;;;;;20.48;48.25;102094.38;5075364;28;20384;-35
2022/07/27 10:51:49;;;;;;;3.17;0.85;;;;;;;20.19;48.33;102085.69;5075967;28;20435;-36
2022/07/27 10:54:37;;;;;;;3.50;0.90;;;;;;;19.87;49.24;102077.53;5075919;28;20032;-35
2022/07/27 10:57:04;;;;;;;4.18;0.90;;;;;;;19.57;49.40;102075.34;5075637;28;20156;-36
2022/07/27 10:59:38;;;;;;;5.10;0.93;;;;;;;19.46;49.76;102076.31;5075100;28;20028;-36
2022/07/27 11:02:07;;;;;;;1.70;0.65;;;;;;;19.35;49.74;102074.59;5075580;28;20028;-35
2022/07/27 11:04:41;;;;;;;2.33;0.85;;;;;;;19.36;49.16;102071.56;5074748;28;20334;-35
2022/07/27 11:07:06;;;;;;;1.88;0.80;;;;;;;19.36;48.69;102073.50;5075624;28;20025;-36
2022/07/27 11:09:35;;;;;;;2.33;1.00;;;;;;;19.29;48.90;102069.06;5075230;28;20128;-36
2022/07/27 11:12:05;;;;;;;1.98;0.80;;;;;;;19.35;49.68;102074.59;5074874;28;20139;-36
2022/07/27 11:14:41;;;;;;;2.38;0.88;;;;;;;19.40;50.22;102077.38;5075246;28;20052;-36
2022/07/27 11:17:07;;;;;;;4.25;1.08;;;;;;;19.41;50.73;102057.06;5074840;28;20457;-36
2022/07/27 11:19:32;;;;;;;6.57;0.98;;;;;;;19.40;48.20;102072.72;5074745;28;20033;-36
2022/07/27 11:21:59;;;;;;;4.55;0.90;;;;;;;19.47;49.57;102073.34;5074948;28;20020;-36
2022/07/27 11:24:26;;;;;;;3.22;1.02;;;;;;;19.52;49.45;102067.03;5074543;28;20029;-36
2022/07/27 11:26:51;;;;;;;2.47;0.93;;;;;;;19.39;48.13;102070.25;5075323;28;20054;-36
2022/07/27 11:29:19;;;;;;;4.03;0.85;;;;;;;19.30;47.85;102070.69;5074132;28;20484;-36
2022/07/27 11:31:47;;;;;;;3.13;0.80;;;;;;;19.40;48.04;102069.16;5074175;28;20020;-36
2022/07/27 11:34:16;;;;;;;3.17;0.85;;;;;;;19.41;48.86;102055.16;5073428;28;20028;-36
2022/07/27 11:36:49;;;;;;;2.15;0.77;;;;;;;19.56;50.03;102060.78;5074498;28;20031;-36
2022/07/27 11:39:24;;;;;;;3.47;0.90;;;;;;;19.80;49.80;102058.53;5074273;28;20025;-36